createdAt,value
2022-11-26T00:02:23.719Z,3.00
2022-11-26T00:04:54.022Z,3.10
2022-11-26T00:07:25.870Z,3.00
2022-11-26T00:09:54.637Z,2.77
2022-11-26T00:12:24.081Z,2.97
2022-11-26T00:14:51.933Z,2.93
2022-11-26T00:17:20.794Z,3.00
2022-11-26T00:19:48.564Z,3.17
2022-11-26T00:22:25.216Z,3.10
2022-11-26T00:24:54.260Z,2.70
2022-11-26T00:27:23.532Z,3.07
2022-11-26T00:29:51.093Z,3.00
2022-11-26T00:32:20.486Z,3.07
2022-11-26T00:34:48.104Z,2.83
2022-11-26T00:37:21.705Z,2.80
2022-11-26T00:39:50.237Z,2.90
2022-11-26T00:42:18.227Z,2.83
2022-11-26T00:44:45.811Z,3.03
2022-11-26T00:47:13.306Z,2.87
2022-11-26T00:49:40.855Z,3.30
2022-11-26T00:52:29.345Z,3.23
2022-11-26T00:54:56.966Z,3.13
2022-11-26T00:57:24.602Z,2.97
2022-11-26T00:59:52.053Z,3.40
2022-11-26T01:02:19.620Z,3.20
2022-11-26T01:04:47.386Z,3.43
2022-11-26T01:07:15.032Z,2.90
2022-11-26T01:09:47.698Z,3.17
2022-11-26T01:12:16.208Z,3.60
2022-11-26T01:14:43.724Z,3.27
2022-11-26T01:17:13.074Z,3.20
2022-11-26T01:19:40.760Z,3.10
2022-11-26T01:22:19.846Z,3.17
2022-11-26T01:24:49.220Z,3.30
2022-11-26T01:27:21.841Z,3.23
2022-11-26T01:29:49.499Z,2.83
2022-11-26T01:32:17.035Z,3.10
2022-11-26T01:34:44.546Z,3.50
2022-11-26T01:37:14.344Z,3.07
2022-11-26T01:39:42.226Z,3.37
2022-11-26T01:42:25.173Z,2.90
2022-11-26T01:44:52.714Z,2.93
2022-11-26T01:47:23.830Z,2.90
2022-11-26T01:50:29.060Z,3.10
2022-11-26T01:53:00.600Z,2.90
2022-11-26T01:55:37.127Z,3.80
2022-11-26T01:58:08.329Z,3.20
2022-11-26T02:00:35.972Z,3.40
2022-11-26T02:03:05.755Z,3.50
2022-11-26T02:05:39.975Z,3.50
2022-11-26T02:08:07.732Z,3.37
2022-11-26T02:10:35.690Z,3.17
2022-11-26T02:13:03.552Z,3.40
2022-11-26T02:15:42.039Z,3.37
2022-11-26T02:18:10.674Z,3.10
2022-11-26T02:20:53.484Z,3.10
2022-11-26T02:23:59.098Z,2.90
2022-11-26T02:27:02.631Z,3.20
2022-11-26T02:29:50.896Z,3.07
2022-11-26T02:32:23.716Z,2.93
2022-11-26T02:34:59.374Z,3.10
2022-11-26T02:37:34.956Z,4.27
2022-11-26T02:40:02.491Z,3.37
2022-11-26T02:42:32.592Z,3.37
2022-11-26T02:45:05.297Z,4.00
2022-11-26T02:47:34.726Z,4.07
2022-11-26T02:50:07.608Z,3.90
2022-11-26T02:52:36.310Z,3.87
2022-11-26T02:55:06.954Z,3.90
2022-11-26T02:57:38.112Z,3.97
2022-11-26T03:00:08.985Z,4.17
2022-11-26T03:02:43.431Z,3.33
2022-11-26T03:05:13.672Z,3.33
2022-11-26T03:07:42.421Z,3.90
2022-11-26T03:10:10.352Z,3.50
2022-11-26T03:12:37.925Z,3.50
2022-11-26T03:15:07.807Z,3.90
2022-11-26T03:17:35.342Z,4.10
2022-11-26T03:20:03.717Z,3.20
2022-11-26T03:22:31.305Z,3.77
2022-11-26T03:24:58.863Z,3.43
2022-11-26T03:27:26.346Z,3.70
2022-11-26T03:29:53.864Z,3.73
2022-11-26T03:32:22.943Z,4.20
2022-11-26T03:34:50.529Z,3.70
2022-11-26T03:37:18.446Z,4.40
2022-11-26T03:39:45.969Z,4.00
2022-11-26T03:42:13.510Z,4.00
2022-11-26T03:44:41.141Z,4.33
2022-11-26T03:47:08.663Z,4.40
2022-11-26T03:49:37.550Z,4.20
2022-11-26T03:52:05.449Z,3.80
2022-11-26T03:54:32.967Z,4.40
2022-11-26T03:57:00.463Z,4.27
2022-11-26T03:59:28.007Z,3.87
2022-11-26T04:01:55.627Z,4.27
2022-11-26T04:04:23.206Z,3.77
2022-11-26T04:06:52.092Z,4.20
2022-11-26T04:09:19.693Z,4.00
2022-11-26T04:11:47.235Z,4.10
2022-11-26T04:14:14.978Z,4.00
2022-11-26T04:16:42.534Z,4.23
2022-11-26T04:19:10.131Z,3.87
2022-11-26T04:21:37.690Z,3.60
2022-11-26T04:24:06.950Z,3.57
2022-11-26T04:26:34.615Z,4.10
2022-11-26T04:29:02.154Z,4.17
2022-11-26T04:31:29.727Z,4.40
2022-11-26T04:33:57.310Z,4.67
2022-11-26T04:36:25.051Z,4.53
2022-11-26T04:38:52.656Z,4.10
2022-11-26T04:41:21.497Z,3.90
2022-11-26T04:43:49.136Z,3.67
2022-11-26T04:46:16.690Z,3.57
2022-11-26T04:48:44.366Z,4.00
2022-11-26T04:51:11.882Z,3.80
2022-11-26T04:53:39.443Z,3.60
2022-11-26T04:56:07.595Z,3.83
2022-11-26T04:58:36.494Z,3.30
2022-11-26T05:01:04.045Z,3.80
2022-11-26T05:03:31.609Z,3.33
2022-11-26T05:05:59.096Z,3.37
2022-11-26T05:08:26.616Z,4.20
2022-11-26T05:10:55.216Z,3.73
2022-11-26T05:13:23.017Z,3.83
2022-11-26T05:15:51.883Z,3.77
2022-11-26T05:18:19.396Z,4.30
2022-11-26T05:20:46.998Z,4.00
2022-11-26T05:23:14.807Z,3.60
2022-11-26T05:25:42.345Z,4.40
2022-11-26T05:28:09.914Z,4.13
2022-11-26T05:30:38.272Z,3.40
2022-11-26T05:33:07.110Z,3.47
2022-11-26T05:35:34.696Z,2.87
2022-11-26T05:38:02.319Z,3.80
2022-11-26T05:40:29.876Z,4.30
2022-11-26T05:42:57.391Z,3.20
2022-11-26T05:45:24.942Z,2.60
2022-11-26T05:47:52.501Z,3.40
2022-11-26T05:50:21.441Z,3.20
2022-11-26T05:52:48.956Z,3.13
2022-11-26T05:55:17.229Z,3.03
2022-11-26T05:57:44.827Z,2.60
2022-11-26T06:00:13.759Z,2.30
2022-11-26T06:02:41.477Z,3.27
2022-11-26T06:05:10.176Z,2.87
2022-11-26T06:07:43.271Z,2.70
2022-11-26T06:10:13.115Z,2.77
2022-11-26T06:12:40.671Z,3.07
2022-11-26T06:15:09.013Z,2.57
2022-11-26T06:17:36.511Z,3.10
2022-11-26T06:20:05.142Z,2.80
2022-11-26T06:22:39.117Z,2.90
2022-11-26T06:25:09.118Z,2.80
2022-11-26T06:27:37.240Z,3.20
2022-11-26T06:30:06.307Z,2.93
2022-11-26T06:32:34.360Z,2.93
2022-11-26T06:35:01.953Z,2.90
2022-11-26T06:37:29.475Z,2.80
2022-11-26T06:39:58.362Z,3.40
2022-11-26T06:42:25.959Z,3.63
2022-11-26T06:44:58.359Z,3.30
2022-11-26T06:47:27.551Z,2.47
2022-11-26T06:49:55.086Z,2.57
2022-11-26T06:52:22.611Z,3.00
2022-11-26T06:54:50.514Z,3.03
2022-11-26T06:57:19.382Z,3.63
2022-11-26T06:59:46.907Z,4.83
2022-11-26T07:02:14.497Z,3.37
2022-11-26T07:04:42.303Z,3.87
2022-11-26T07:07:09.877Z,4.27
2022-11-26T07:09:37.491Z,5.20
2022-11-26T07:12:05.304Z,5.20
2022-11-26T07:14:35.309Z,4.33
2022-11-26T07:17:02.894Z,4.40
2022-11-26T07:19:30.514Z,3.90
2022-11-26T07:21:58.055Z,4.10
2022-11-26T07:24:25.895Z,3.73
2022-11-26T07:26:53.390Z,3.40
2022-11-26T07:29:20.905Z,2.93
2022-11-26T07:31:50.001Z,2.97
2022-11-26T07:34:17.564Z,3.33
2022-11-26T07:36:45.345Z,4.20
2022-11-26T07:39:13.317Z,4.77
2022-11-26T07:41:40.964Z,4.47
2022-11-26T07:44:13.139Z,4.33
2022-11-26T07:46:41.177Z,3.30
2022-11-26T07:49:10.294Z,3.90
2022-11-26T07:51:39.347Z,3.43
2022-11-26T07:54:08.953Z,3.40
2022-11-26T07:56:37.240Z,3.97
2022-11-26T07:59:04.949Z,4.00
2022-11-26T08:01:32.756Z,3.10
2022-11-26T08:04:04.267Z,3.10
2022-11-26T08:06:34.006Z,3.00
2022-11-26T08:09:03.472Z,2.70
2022-11-26T08:11:32.650Z,2.30
2022-11-26T08:14:02.674Z,2.70
2022-11-26T08:16:30.908Z,2.47
2022-11-26T08:19:00.553Z,2.80
2022-11-26T08:21:28.853Z,3.07
2022-11-26T08:23:57.764Z,3.20
2022-11-26T08:26:35.966Z,3.00
2022-11-26T08:29:04.966Z,3.37
2022-11-26T08:31:32.903Z,3.53
2022-11-26T08:34:01.750Z,3.37
2022-11-26T08:36:30.872Z,3.40
2022-11-26T08:39:00.367Z,3.63
2022-11-26T08:41:28.253Z,3.70
2022-11-26T08:44:11.405Z,3.17
2022-11-26T08:46:40.457Z,3.60
2022-11-26T08:49:10.845Z,3.47
2022-11-26T08:51:38.707Z,3.77
2022-11-26T08:54:07.763Z,5.00
2022-11-26T08:56:35.313Z,4.40
2022-11-26T08:59:03.216Z,5.33
2022-11-26T09:01:33.271Z,4.07
2022-11-26T09:04:02.462Z,3.50
2022-11-26T09:06:32.809Z,3.63
2022-11-26T09:09:14.238Z,3.20
2022-11-26T09:11:45.816Z,2.87
2022-11-26T09:14:14.572Z,3.73
2022-11-26T09:16:42.322Z,2.83
2022-11-26T09:19:11.470Z,3.00
2022-11-26T09:21:39.090Z,3.37
2022-11-26T09:24:07.229Z,5.50
2022-11-26T09:26:35.383Z,4.80
2022-11-26T09:29:04.797Z,5.00
2022-11-26T09:31:32.519Z,4.73
2022-11-26T09:34:02.067Z,4.43
2022-11-26T09:36:30.376Z,4.03
2022-11-26T09:38:59.827Z,3.73
2022-11-26T09:41:41.148Z,3.90
2022-11-26T09:44:22.059Z,5.10
2022-11-26T09:47:15.358Z,6.33
2022-11-26T09:49:55.393Z,4.57
2022-11-26T09:52:26.829Z,4.00
2022-11-26T09:55:03.336Z,3.87
2022-11-26T09:57:38.121Z,4.10
2022-11-26T10:00:22.359Z,4.00
2022-11-26T10:02:53.059Z,4.07
2022-11-26T10:05:21.982Z,4.20
2022-11-26T10:08:03.520Z,3.90
2022-11-26T10:10:38.615Z,4.57
2022-11-26T10:13:19.828Z,4.20
2022-11-26T10:15:59.226Z,4.20
2022-11-26T10:18:38.358Z,4.43
2022-11-26T10:21:15.256Z,5.10
2022-11-26T10:23:47.527Z,4.03
2022-11-26T10:26:18.869Z,4.57
2022-11-26T10:28:48.332Z,5.47
2022-11-26T10:31:23.824Z,4.67
2022-11-26T10:33:56.039Z,4.30
2022-11-26T10:36:26.526Z,4.33
2022-11-26T10:38:56.507Z,4.43
2022-11-26T10:41:27.181Z,4.33
2022-11-26T10:43:54.751Z,3.90
2022-11-26T10:46:35.383Z,4.07
2022-11-26T10:49:17.824Z,3.63
2022-11-26T10:51:49.146Z,3.83
2022-11-26T10:54:29.267Z,4.37
2022-11-26T10:57:02.471Z,3.90
2022-11-26T10:59:34.409Z,3.50
2022-11-26T11:02:07.499Z,4.27
2022-11-26T11:04:40.410Z,4.10
2022-11-26T11:07:29.915Z,4.23
2022-11-26T11:10:04.313Z,4.37
2022-11-26T11:12:31.877Z,3.73
2022-11-26T11:15:19.450Z,4.30
2022-11-26T11:17:56.031Z,4.37
2022-11-26T11:20:30.088Z,4.33
2022-11-26T11:23:04.658Z,4.93
2022-11-26T11:25:34.389Z,5.27
2022-11-26T11:28:10.637Z,4.53
2022-11-26T11:30:42.870Z,5.20
2022-11-26T11:33:19.206Z,6.20
2022-11-26T11:35:58.676Z,5.73
2022-11-26T11:38:28.225Z,5.87
2022-11-26T11:40:55.885Z,5.80
2022-11-26T11:43:26.743Z,5.87
2022-11-26T11:46:09.394Z,5.70
2022-11-26T11:48:48.815Z,6.30
2022-11-26T11:51:37.233Z,7.30
2022-11-26T11:54:19.758Z,8.00
2022-11-26T11:56:52.542Z,7.50
2022-11-26T11:59:47.472Z,8.00
2022-11-26T12:02:42.551Z,8.10
2022-11-26T12:05:31.689Z,8.13
2022-11-26T12:08:08.813Z,7.70
2022-11-26T12:10:45.290Z,8.30
2022-11-26T12:13:15.742Z,7.67
2022-11-26T12:15:53.084Z,9.77
2022-11-26T12:18:26.771Z,10.13
2022-11-26T12:21:00.053Z,9.53
2022-11-26T12:23:33.204Z,9.17
2022-11-26T12:26:08.811Z,10.47
2022-11-26T12:28:42.706Z,10.10
2022-11-26T12:31:16.456Z,10.40
2022-11-26T12:33:49.354Z,10.20
2022-11-26T12:36:23.405Z,10.67
2022-11-26T12:38:54.971Z,9.60
2022-11-26T12:41:26.146Z,10.67
2022-11-26T12:44:02.150Z,11.37
2022-11-26T12:46:37.688Z,10.47
2022-11-26T12:49:14.140Z,9.93
2022-11-26T12:51:49.966Z,9.97
2022-11-26T12:54:21.086Z,10.37
2022-11-26T12:56:58.999Z,10.27
2022-11-26T12:59:32.160Z,10.13
2022-11-26T13:02:00.221Z,10.20
2022-11-26T13:04:49.295Z,10.30
2022-11-26T13:07:32.538Z,9.43
2022-11-26T13:10:11.900Z,9.80
2022-11-26T13:12:49.714Z,10.03
2022-11-26T13:15:24.930Z,10.67
2022-11-26T13:17:52.966Z,11.03
2022-11-26T13:20:55.840Z,10.63
2022-11-26T13:23:35.249Z,10.63
2022-11-26T13:26:19.005Z,10.77
2022-11-26T13:29:07.293Z,11.03
2022-11-26T13:31:53.063Z,11.17
2022-11-26T13:34:37.688Z,11.93
2022-11-26T13:37:22.350Z,11.37
2022-11-26T13:40:29.505Z,10.63
2022-11-26T13:43:16.907Z,10.37
2022-11-26T13:46:00.160Z,9.77
2022-11-26T13:48:37.589Z,10.93
2022-11-26T13:51:15.341Z,10.63
2022-11-26T13:53:48.475Z,8.57
2022-11-26T13:56:22.454Z,8.60
2022-11-26T13:58:54.707Z,8.90
2022-11-26T14:01:40.379Z,9.27
2022-11-26T14:04:10.912Z,9.20
2022-11-26T14:06:39.485Z,8.07
2022-11-26T14:09:07.370Z,9.20
2022-11-26T14:12:00.879Z,9.57
2022-11-26T14:14:34.987Z,8.53
2022-11-26T14:17:14.611Z,8.77
2022-11-26T14:20:01.650Z,9.33
2022-11-26T14:22:31.925Z,9.77
2022-11-26T14:25:02.765Z,9.07
2022-11-26T14:27:33.516Z,9.70
2022-11-26T14:30:17.199Z,9.67
2022-11-26T14:32:52.875Z,9.20
2022-11-26T14:35:29.192Z,8.57
2022-11-26T14:38:01.397Z,8.33
2022-11-26T14:40:30.801Z,8.80
2022-11-26T14:43:16.510Z,8.03
2022-11-26T14:45:47.781Z,7.40
2022-11-26T14:48:25.640Z,7.00
2022-11-26T14:50:54.671Z,7.87
2022-11-26T14:53:24.617Z,7.53
2022-11-26T14:55:53.408Z,7.63
2022-11-26T14:58:28.538Z,7.67
2022-11-26T15:01:09.296Z,6.57
2022-11-26T15:03:36.957Z,5.17
2022-11-26T15:06:04.783Z,4.20
2022-11-26T15:08:32.361Z,3.87
2022-11-26T15:11:03.836Z,4.17
2022-11-26T15:13:34.944Z,4.40
2022-11-26T15:16:24.591Z,4.57
2022-11-26T15:18:55.327Z,5.00
2022-11-26T15:21:24.555Z,4.90
2022-11-26T15:23:54.333Z,4.33
2022-11-26T15:26:23.746Z,3.90
2022-11-26T15:28:51.378Z,4.27
2022-11-26T15:31:20.302Z,4.10
2022-11-26T15:33:48.258Z,4.00
2022-11-26T15:36:17.821Z,4.63
2022-11-26T15:39:00.968Z,3.83
2022-11-26T15:41:28.766Z,4.20
2022-11-26T15:43:58.709Z,4.13
2022-11-26T15:46:31.527Z,4.10
2022-11-26T15:49:01.537Z,4.03
2022-11-26T15:51:35.832Z,3.40
2022-11-26T15:54:04.768Z,3.63
2022-11-26T15:56:35.288Z,3.93
2022-11-26T15:59:14.373Z,3.60
2022-11-26T16:01:46.492Z,3.63
2022-11-26T16:04:39.864Z,3.90
2022-11-26T16:07:13.989Z,3.70
2022-11-26T16:09:42.046Z,3.40
2022-11-26T16:12:31.009Z,4.07
2022-11-26T16:15:21.384Z,3.50
2022-11-26T16:17:51.454Z,3.77
2022-11-26T16:20:22.322Z,3.50
2022-11-26T16:22:52.046Z,4.10
2022-11-26T16:25:22.604Z,3.80
2022-11-26T16:28:08.278Z,4.13
2022-11-26T16:30:36.043Z,4.07
2022-11-26T16:33:05.471Z,3.90
2022-11-26T16:35:48.926Z,4.13
2022-11-26T16:38:20.804Z,3.80
2022-11-26T16:40:48.637Z,3.83
2022-11-26T16:43:16.525Z,4.63
2022-11-26T16:45:44.300Z,4.27
2022-11-26T16:48:23.256Z,4.37
2022-11-26T16:50:51.020Z,4.47
2022-11-26T16:53:18.678Z,4.17
2022-11-26T16:55:46.797Z,4.30
2022-11-26T16:58:22.559Z,4.97
2022-11-26T17:00:51.073Z,5.03
2022-11-26T17:03:22.572Z,4.97
2022-11-26T17:05:53.306Z,4.80
2022-11-26T17:08:20.956Z,4.90
2022-11-26T17:10:48.585Z,5.10
2022-11-26T17:13:16.318Z,4.67
2022-11-26T17:15:44.302Z,5.57
2022-11-26T17:18:21.812Z,5.40
2022-11-26T17:20:50.151Z,5.43
2022-11-26T17:23:18.270Z,5.80
2022-11-26T17:25:47.215Z,5.40
2022-11-26T17:28:16.273Z,5.47
2022-11-26T17:30:45.440Z,4.97
2022-11-26T17:33:13.146Z,4.83
2022-11-26T17:35:42.058Z,4.53
2022-11-26T17:38:15.300Z,4.93
2022-11-26T17:40:43.745Z,4.47
2022-11-26T17:43:11.906Z,4.63
2022-11-26T17:45:39.765Z,5.20
2022-11-26T17:48:07.888Z,5.20
2022-11-26T17:50:36.200Z,5.60
2022-11-26T17:53:05.070Z,5.87
2022-11-26T17:55:33.052Z,6.30
2022-11-26T17:58:00.584Z,5.20
2022-11-26T18:00:29.657Z,5.90
2022-11-26T18:02:57.940Z,6.03
2022-11-26T18:05:26.050Z,5.90
2022-11-26T18:07:53.707Z,5.83
2022-11-26T18:10:23.942Z,5.23
2022-11-26T18:12:54.452Z,5.20
2022-11-26T18:15:23.758Z,4.87
2022-11-26T18:17:53.234Z,4.87
2022-11-26T18:20:24.095Z,4.90
2022-11-26T18:22:51.926Z,4.37
2022-11-26T18:25:19.619Z,4.70
2022-11-26T18:27:48.531Z,4.70
2022-11-26T18:30:17.723Z,4.90
2022-11-26T18:32:45.395Z,4.87
2022-11-26T18:35:14.075Z,5.17
2022-11-26T18:37:41.862Z,5.13
2022-11-26T18:40:14.414Z,5.20
2022-11-26T18:42:42.310Z,5.20
2022-11-26T18:45:14.714Z,5.33
2022-11-26T18:47:42.265Z,5.10
2022-11-26T18:50:10.989Z,5.07
2022-11-26T18:52:39.814Z,4.53
2022-11-26T18:55:08.918Z,4.87
2022-11-26T18:57:36.675Z,4.57
2022-11-26T19:00:06.863Z,4.70
2022-11-26T19:02:36.807Z,4.30
2022-11-26T19:05:04.643Z,4.90
2022-11-26T19:07:33.175Z,4.47
2022-11-26T19:10:00.791Z,4.60
2022-11-26T19:12:28.330Z,5.13
2022-11-26T19:14:55.847Z,4.43
2022-11-26T19:17:23.410Z,4.90
2022-11-26T19:19:52.352Z,4.50
2022-11-26T19:22:19.867Z,4.33
2022-11-26T19:24:48.978Z,5.13
2022-11-26T19:27:16.478Z,4.77
2022-11-26T19:29:44.020Z,4.90
2022-11-26T19:32:11.517Z,5.47
2022-11-26T19:34:39.147Z,5.63
2022-11-26T19:37:08.111Z,6.00
2022-11-26T19:39:35.876Z,5.93
2022-11-26T19:42:03.427Z,5.77
2022-11-26T19:44:30.955Z,6.03
2022-11-26T19:46:58.445Z,5.97
2022-11-26T19:49:27.566Z,6.87
2022-11-26T19:51:55.491Z,6.47
2022-11-26T19:54:24.426Z,6.50
2022-11-26T19:56:51.945Z,6.07
2022-11-26T19:59:20.255Z,6.47
2022-11-26T20:01:48.325Z,6.93
2022-11-26T20:04:19.455Z,7.13
2022-11-26T20:06:46.982Z,7.17
2022-11-26T20:09:16.870Z,6.47
2022-11-26T20:11:45.915Z,6.53
2022-11-26T20:14:14.958Z,6.53
2022-11-26T20:16:44.477Z,6.53
2022-11-26T20:19:13.230Z,7.27
2022-11-26T20:21:40.988Z,6.97
2022-11-26T20:24:11.852Z,7.00
2022-11-26T20:26:41.907Z,7.23
2022-11-26T20:29:13.006Z,7.67
2022-11-26T20:31:44.455Z,7.97
2022-11-26T20:34:13.874Z,8.10
2022-11-26T20:36:41.444Z,8.10
2022-11-26T20:39:09.304Z,8.13
2022-11-26T20:41:36.831Z,8.43
2022-11-26T20:44:04.380Z,8.33
2022-11-26T20:46:33.609Z,7.93
2022-11-26T20:49:01.239Z,8.17
2022-11-26T20:51:28.805Z,8.83
2022-11-26T20:53:59.411Z,8.53
2022-11-26T20:56:27.148Z,8.70
2022-11-26T20:58:55.086Z,8.33
2022-11-26T21:01:24.828Z,8.50
2022-11-26T21:03:54.634Z,9.67
2022-11-26T21:06:29.361Z,8.70
2022-11-26T21:08:57.967Z,7.90
2022-11-26T21:11:25.662Z,9.03
2022-11-26T21:13:53.190Z,7.90
2022-11-26T21:16:20.811Z,9.70
2022-11-26T21:18:48.354Z,9.07
2022-11-26T21:21:18.292Z,8.77
2022-11-26T21:23:46.443Z,9.03
2022-11-26T21:26:16.785Z,8.87
2022-11-26T21:28:44.372Z,8.50
2022-11-26T21:31:17.043Z,8.50
2022-11-26T21:33:45.528Z,8.97
2022-11-26T21:36:15.241Z,9.63
2022-11-26T21:38:48.132Z,9.47
2022-11-26T21:41:17.184Z,9.70
2022-11-26T21:43:45.357Z,9.80
2022-11-26T21:46:16.205Z,9.70
2022-11-26T21:48:44.056Z,9.97
2022-11-26T21:51:13.768Z,9.47
2022-11-26T21:53:41.633Z,9.70
2022-11-26T21:56:13.654Z,9.67
2022-11-26T21:58:41.531Z,9.73
2022-11-26T22:01:13.388Z,10.23
2022-11-26T22:03:42.256Z,10.13
2022-11-26T22:06:11.141Z,9.73
2022-11-26T22:08:39.320Z,9.60
2022-11-26T22:11:12.613Z,8.23
2022-11-26T22:13:40.270Z,7.60
2022-11-26T22:16:08.912Z,7.53
2022-11-26T22:18:37.991Z,6.87
2022-11-26T22:21:05.695Z,7.47
2022-11-26T22:23:33.186Z,7.70
2022-11-26T22:26:00.740Z,7.40
2022-11-26T22:28:30.598Z,6.80
2022-11-26T22:30:58.212Z,7.00
2022-11-26T22:33:25.887Z,7.43
2022-11-26T22:35:53.450Z,6.77
2022-11-26T22:38:20.943Z,6.20
2022-11-26T22:40:48.428Z,5.90
2022-11-26T22:43:15.955Z,6.00
2022-11-26T22:45:44.838Z,6.73
2022-11-26T22:48:12.588Z,6.13
2022-11-26T22:50:40.098Z,5.60
2022-11-26T22:53:07.685Z,5.53
2022-11-26T22:55:35.268Z,5.80
2022-11-26T22:58:02.746Z,5.50
2022-11-26T23:00:49.681Z,5.93
2022-11-26T23:03:18.168Z,5.43
2022-11-26T23:05:45.992Z,5.47
2022-11-26T23:08:15.110Z,5.07
2022-11-26T23:10:43.602Z,5.23
2022-11-26T23:13:13.697Z,5.10
2022-11-26T23:15:44.878Z,5.20
2022-11-26T23:18:15.674Z,5.33
2022-11-26T23:20:43.979Z,5.30
2022-11-26T23:23:11.567Z,5.13
2022-11-26T23:25:39.902Z,5.80
2022-11-26T23:28:08.151Z,5.97
2022-11-26T23:30:36.355Z,5.80
2022-11-26T23:33:04.193Z,5.60
2022-11-26T23:35:33.028Z,5.63
2022-11-26T23:38:00.540Z,5.60
2022-11-26T23:40:28.095Z,5.37
2022-11-26T23:42:55.637Z,5.53
2022-11-26T23:45:23.300Z,5.60
2022-11-26T23:47:50.779Z,5.63
2022-11-26T23:50:18.407Z,5.03
2022-11-26T23:52:47.254Z,4.90
2022-11-26T23:55:14.763Z,4.47
2022-11-26T23:57:42.343Z,4.63
